Time;durP1;ratioP1;P1;durP2;ratioP2;P2;SDS_P1;SDS_P2;PMS_P1;PMS_P2;Temp;Humidity;BMP_temperature;BMP_pressure;BME280_temperature;BME280_humidity;BME280_pressure;Samples;Min_cycle;Max_cycle;Signal;HPM_P1;HPM_P2
2022/03/22 00:00:49;;;;;;;17.50;15.00;;;6.10;99.90;;;;;;4938384;29;20492;-68
2022/03/22 00:03:46;;;;;;;17.50;15.60;;;6.10;99.90;;;;;;4926803;29;20495;-67
2022/03/22 00:06:45;;;;;;;17.20;14.80;;;6.00;99.90;;;;;;4920900;28;20460;-67
2022/03/22 00:09:36;;;;;;;17.40;15.70;;;6.00;99.90;;;;;;4913870;29;20615;-67
2022/03/22 00:12:27;;;;;;;15.90;14.20;;;5.90;99.90;;;;;;4917541;29;20515;-67
2022/03/22 00:15:22;;;;;;;17.50;15.70;;;5.90;99.90;;;;;;4915489;29;21801;-67
2022/03/22 00:18:32;;;;;;;18.20;16.00;;;5.90;99.90;;;;;;4921596;29;20487;-67
2022/03/22 00:21:20;;;;;;;16.70;15.10;;;5.80;99.90;;;;;;4919187;29;20543;-68
2022/03/22 00:24:20;;;;;;;19.57;16.30;;;5.80;99.90;;;;;;4924521;28;21003;-67
2022/03/22 00:27:21;;;;;;;17.23;15.43;;;5.80;99.90;;;;;;4922716;29;20465;-67
2022/03/22 00:30:25;;;;;;;16.73;14.93;;;5.80;99.90;;;;;;4920153;29;20507;-67
2022/03/22 00:33:15;;;;;;;17.47;15.50;;;5.80;99.90;;;;;;4920124;29;20588;-67
2022/03/22 00:36:06;;;;;;;16.70;15.10;;;5.80;99.90;;;;;;4920411;29;20584;-67
2022/03/22 00:39:03;;;;;;;15.40;13.80;;;5.80;99.90;;;;;;4917305;29;20968;-67
2022/03/22 00:42:08;;;;;;;17.20;15.03;;;5.80;99.90;;;;;;4919939;29;21001;-67
2022/03/22 00:45:01;;;;;;;17.30;14.10;;;5.80;99.90;;;;;;4917736;29;21737;-68
2022/03/22 00:47:54;;;;;;;17.50;15.60;;;5.80;99.90;;;;;;4919349;29;20460;-67
2022/03/22 00:51:04;;;;;;;16.07;14.00;;;5.80;99.90;;;;;;4920858;29;20487;-67
2022/03/22 00:54:02;;;;;;;18.33;15.47;;;5.80;99.90;;;;;;4919253;29;21138;-68
2022/03/22 00:57:08;;;;;;;16.50;14.77;;;5.80;99.90;;;;;;4916947;29;20478;-67
2022/03/22 01:00:05;;;;;;;16.50;14.77;;;5.70;99.90;;;;;;4918031;29;20526;-67
2022/03/22 01:03:00;;;;;;;16.37;13.80;;;5.70;99.90;;;;;;4920708;29;20660;-67
2022/03/22 01:05:50;;;;;;;16.10;13.93;;;5.70;99.90;;;;;;4919213;29;20540;-68
2022/03/22 01:08:44;;;;;;;16.73;14.43;;;5.70;99.90;;;;;;4909915;29;20467;-67
2022/03/22 01:11:36;;;;;;;17.00;14.57;;;5.70;99.90;;;;;;4917984;29;20468;-67
2022/03/22 01:14:31;;;;;;;15.93;14.00;;;5.70;99.90;;;;;;4923104;29;20511;-67
2022/03/22 01:17:25;;;;;;;17.13;14.80;;;5.70;99.90;;;;;;4920778;29;20457;-67
2022/03/22 01:20:24;;;;;;;16.53;14.60;;;5.70;99.90;;;;;;4919431;29;20512;-67
2022/03/22 01:23:15;;;;;;;16.50;14.20;;;5.80;99.90;;;;;;4916650;29;20463;-67
2022/03/22 01:26:06;;;;;;;16.17;14.23;;;5.90;99.90;;;;;;4918745;29;20615;-67
2022/03/22 01:29:01;;;;;;;16.33;14.70;;;5.90;99.90;;;;;;4917105;29;20587;-67
2022/03/22 01:32:01;;;;;;;16.00;14.30;;;5.90;99.90;;;;;;4917299;29;20516;-67
2022/03/22 01:34:51;;;;;;;17.20;14.67;;;5.90;99.90;;;;;;4914087;28;20475;-68
2022/03/22 01:37:47;;;;;;;18.20;15.40;;;6.00;99.90;;;;;;4918568;29;20476;-67
2022/03/22 01:40:37;;;;;;;16.83;14.97;;;6.00;99.90;;;;;;4923493;29;20492;-67
2022/03/22 01:43:30;;;;;;;15.93;14.23;;;6.00;99.90;;;;;;4920451;29;20603;-67
2022/03/22 01:46:27;;;;;;;16.20;14.53;;;5.90;99.90;;;;;;4919926;29;20575;-67
2022/03/22 01:49:34;;;;;;;18.00;15.40;;;6.00;99.90;;;;;;4920341;29;20472;-67
2022/03/22 01:52:24;;;;;;;15.13;13.60;;;5.90;99.90;;;;;;4920138;29;20449;-68
2022/03/22 01:55:15;;;;;;;15.50;13.90;;;5.90;99.90;;;;;;4912494;28;20508;-67
2022/03/22 01:58:13;;;;;;;15.97;14.30;;;5.90;99.90;;;;;;4921203;29;20508;-67
2022/03/22 02:07:31;;;;;;;15.97;14.37;;;6.00;99.90;;;;;;4946583;29;20508;-69
2022/03/22 02:10:29;;;;;;;18.67;14.83;;;6.00;99.90;;;;;;4943670;29;20960;-68
2022/03/22 02:13:31;;;;;;;16.63;14.83;;;6.00;99.90;;;;;;4932032;29;20587;-68
2022/03/22 02:16:23;;;;;;;14.87;13.30;;;6.00;99.90;;;;;;4921122;29;20492;-67
2022/03/22 02:19:18;;;;;;;16.20;14.50;;;6.00;99.90;;;;;;4923343;29;20487;-67
2022/03/22 02:22:30;;;;;;;18.53;14.23;;;5.90;99.90;;;;;;4920955;29;20500;-68
2022/03/22 02:25:20;;;;;;;18.77;14.37;;;6.00;99.90;;;;;;4919134;28;20650;-68
2022/03/22 02:28:13;;;;;;;15.27;13.67;;;5.90;99.90;;;;;;4921665;29;20456;-68
2022/03/22 02:31:06;;;;;;;17.33;15.00;;;5.90;99.90;;;;;;4921284;29;21003;-67
2022/03/22 02:33:59;;;;;;;15.33;13.73;;;5.90;99.90;;;;;;4918475;29;20484;-68
2022/03/22 02:36:48;;;;;;;15.47;13.87;;;5.90;99.90;;;;;;4920675;29;20828;-67
2022/03/22 02:39:36;;;;;;;16.03;14.40;;;5.90;99.90;;;;;;4933133;29;20537;-68
2022/03/22 02:42:36;;;;;;;16.23;14.53;;;5.90;99.90;;;;;;4944922;29;20470;-68
2022/03/22 02:45:32;;;;;;;15.73;14.13;;;5.90;99.90;;;;;;4921040;29;20507;-67
2022/03/22 02:48:22;;;;;;;17.30;15.53;;;5.90;99.90;;;;;;4913220;29;20537;-67
2022/03/22 02:51:15;;;;;;;15.90;14.27;;;5.90;99.90;;;;;;4923135;29;20452;-68
2022/03/22 02:54:06;;;;;;;15.27;13.77;;;5.90;99.90;;;;;;4919467;29;20548;-68
2022/03/22 02:56:59;;;;;;;15.97;14.20;;;5.90;99.90;;;;;;4920630;29;20562;-67
2022/03/22 02:59:55;;;;;;;16.33;14.17;;;5.90;99.90;;;;;;4923124;29;20975;-67
2022/03/22 03:02:49;;;;;;;15.60;14.10;;;5.90;99.90;;;;;;4920626;29;20551;-67
2022/03/22 03:05:40;;;;;;;15.63;14.07;;;5.80;99.90;;;;;;4922003;29;20473;-67
2022/03/22 03:08:35;;;;;;;17.07;14.20;;;5.80;99.90;;;;;;4916128;29;20449;-67
2022/03/22 03:11:31;;;;;;;16.47;14.67;;;5.80;99.90;;;;;;4921209;29;20483;-67
2022/03/22 03:14:43;;;;;;;15.03;13.53;;;5.80;99.90;;;;;;4915397;29;20491;-67
2022/03/22 03:17:50;;;;;;;17.40;13.97;;;5.80;99.90;;;;;;4919418;29;20491;-67
2022/03/22 03:20:38;;;;;;;14.77;13.30;;;5.70;99.90;;;;;;4921058;29;20984;-67
2022/03/22 03:23:26;;;;;;;15.50;14.00;;;5.70;99.90;;;;;;4919524;29;20567;-68
2022/03/22 03:26:30;;;;;;;15.27;13.63;;;5.70;99.90;;;;;;4916299;29;20487;-67
2022/03/22 03:29:42;;;;;;;15.73;13.97;;;5.70;99.90;;;;;;4942875;29;20496;-68
2022/03/22 03:32:34;;;;;;;16.53;14.73;;;5.70;99.90;;;;;;4938912;29;20511;-67
2022/03/22 03:35:34;;;;;;;15.83;14.33;;;5.60;99.90;;;;;;4921365;29;20489;-68
2022/03/22 03:38:22;;;;;;;17.30;14.13;;;5.70;99.90;;;;;;4916605;29;21150;-67
2022/03/22 03:47:35;;;;;;;18.10;14.60;;;5.60;99.90;;;;;;4919914;29;20547;-67
2022/03/22 03:50:30;;;;;;;17.30;14.77;;;5.60;99.90;;;;;;4919758;29;20519;-68
2022/03/22 03:53:23;;;;;;;16.00;14.30;;;5.60;99.90;;;;;;4917516;29;20464;-67
2022/03/22 03:56:15;;;;;;;16.60;14.87;;;5.60;99.90;;;;;;4918970;29;20547;-68
2022/03/22 03:59:10;;;;;;;16.83;14.50;;;5.50;99.90;;;;;;4920188;29;20488;-67
2022/03/22 04:02:14;;;;;;;15.33;13.87;;;5.60;99.90;;;;;;4915098;29;20471;-67
2022/03/22 04:05:10;;;;;;;18.40;14.33;;;5.60;99.90;;;;;;4913343;29;21193;-68
2022/03/22 04:08:03;;;;;;;15.47;13.87;;;5.50;99.90;;;;;;4914182;29;20603;-67
2022/03/22 04:10:56;;;;;;;14.90;13.30;;;5.50;99.90;;;;;;4915297;29;20480;-67
2022/03/22 04:13:49;;;;;;;16.37;14.73;;;5.50;99.90;;;;;;4914462;29;20614;-68
2022/03/22 04:16:43;;;;;;;17.03;15.03;;;5.50;99.90;;;;;;4915740;29;20542;-68
2022/03/22 04:19:35;;;;;;;16.97;15.17;;;5.50;99.90;;;;;;4912523;29;20490;-68
2022/03/22 04:22:24;;;;;;;16.67;14.93;;;5.50;99.90;;;;;;4940141;29;20459;-68
2022/03/22 04:25:36;;;;;;;15.07;13.20;;;5.50;99.90;;;;;;4944113;29;20492;-68
2022/03/22 04:35:12;;;;;;;20.33;13.40;;;5.50;99.90;;;;;;4937778;29;20497;-68
2022/03/22 04:38:00;;;;;;;17.27;14.63;;;5.40;99.90;;;;;;4934266;29;20472;-68
2022/03/22 04:40:57;;;;;;;19.10;14.90;;;5.40;99.90;;;;;;4930520;29;20493;-67
2022/03/22 04:43:46;;;;;;;15.33;13.77;;;5.40;99.90;;;;;;4927466;28;20472;-67
2022/03/22 04:46:38;;;;;;;19.50;14.90;;;5.40;99.90;;;;;;4917619;29;20516;-68
2022/03/22 04:49:28;;;;;;;16.00;14.30;;;5.40;99.90;;;;;;4917042;29;20477;-67
2022/03/22 04:58:36;;;;;;;16.07;14.47;;;5.30;99.90;;;;;;4916146;29;20448;-67
2022/03/22 05:01:25;;;;;;;16.20;13.63;;;5.30;99.90;;;;;;4917262;29;20467;-68
2022/03/22 05:04:17;;;;;;;16.70;15.07;;;5.30;99.90;;;;;;4919283;29;20487;-67
2022/03/22 05:07:08;;;;;;;17.13;13.80;;;5.30;99.90;;;;;;4919884;29;20579;-67
2022/03/22 05:10:04;;;;;;;17.30;14.93;;;5.20;99.90;;;;;;4919472;29;20485;-68
2022/03/22 05:12:58;;;;;;;16.90;15.10;;;5.20;99.90;;;;;;4918688;29;20547;-68
2022/03/22 05:15:50;;;;;;;16.67;14.83;;;5.20;99.90;;;;;;4924582;29;20483;-68
2022/03/22 05:18:41;;;;;;;17.10;15.30;;;5.20;99.90;;;;;;4925134;29;20610;-67
2022/03/22 05:21:29;;;;;;;16.73;15.00;;;5.20;99.90;;;;;;4925478;29;20642;-68
2022/03/22 05:24:30;;;;;;;16.17;14.50;;;5.20;99.90;;;;;;4931198;29;20476;-68
2022/03/22 05:27:21;;;;;;;17.27;15.40;;;5.10;99.90;;;;;;4941948;29;20550;-72
2022/03/22 05:30:11;;;;;;;17.27;14.37;;;5.10;99.90;;;;;;4938135;29;20538;-68
2022/03/22 05:33:02;;;;;;;16.57;14.87;;;5.10;99.90;;;;;;4927156;29;20783;-67
2022/03/22 05:35:51;;;;;;;20.27;15.50;;;5.10;99.90;;;;;;4912894;28;20488;-67
2022/03/22 05:38:41;;;;;;;17.83;14.57;;;5.10;99.90;;;;;;4918757;29;20567;-67
2022/03/22 05:41:40;;;;;;;17.33;15.40;;;5.10;99.90;;;;;;4906105;29;20468;-66
2022/03/22 05:44:30;;;;;;;16.77;14.93;;;5.10;99.90;;;;;;4915325;29;20495;-67
2022/03/22 05:47:25;;;;;;;17.60;15.10;;;5.00;99.90;;;;;;4915835;29;20453;-67
2022/03/22 05:50:23;;;;;;;17.83;15.50;;;5.00;99.90;;;;;;4915628;29;21045;-67
2022/03/22 05:53:14;;;;;;;17.90;15.40;;;5.00;99.90;;;;;;4917338;29;20467;-67
2022/03/22 05:56:09;;;;;;;17.90;15.30;;;5.00;99.90;;;;;;4915345;29;20515;-67
2022/03/22 05:59:03;;;;;;;17.93;14.63;;;5.00;99.90;;;;;;4915146;29;20502;-67
2022/03/22 06:01:54;;;;;;;17.77;15.00;;;5.00;99.90;;;;;;4920958;29;20569;-66
2022/03/22 06:04:52;;;;;;;17.50;15.20;;;5.10;99.90;;;;;;4909924;29;20543;-67
2022/03/22 06:07:54;;;;;;;20.40;15.60;;;5.10;99.90;;;;;;4911323;29;20456;-67
2022/03/22 06:10:44;;;;;;;20.27;15.23;;;5.10;99.90;;;;;;4909352;29;20889;-66
2022/03/22 06:13:34;;;;;;;17.33;15.30;;;5.20;99.90;;;;;;4912669;29;20452;-66
2022/03/22 06:16:28;;;;;;;17.40;15.60;;;5.20;99.90;;;;;;4909550;29;20464;-67
2022/03/22 06:19:16;;;;;;;18.40;14.77;;;5.20;99.90;;;;;;4910892;29;20492;-67
2022/03/22 06:22:05;;;;;;;17.27;14.97;;;5.30;99.90;;;;;;4897412;29;20460;-66
2022/03/22 06:24:55;;;;;;;18.03;16.10;;;5.30;99.90;;;;;;4905256;29;20488;-67
2022/03/22 06:27:45;;;;;;;17.73;15.83;;;5.30;99.90;;;;;;4894719;29;20698;-67
2022/03/22 06:30:34;;;;;;;18.00;16.10;;;5.40;99.90;;;;;;4884178;29;20810;-66
2022/03/22 06:33:22;;;;;;;17.93;16.03;;;5.40;99.90;;;;;;4896348;29;21140;-68
2022/03/22 06:36:10;;;;;;;20.20;15.50;;;5.50;99.90;;;;;;4904607;29;20484;-67
2022/03/22 06:38:59;;;;;;;18.23;15.93;;;5.50;99.90;;;;;;4912306;29;20976;-67
2022/03/22 06:41:48;;;;;;;17.80;15.90;;;5.60;99.90;;;;;;4908374;29;21077;-67
2022/03/22 06:44:37;;;;;;;17.57;15.70;;;5.90;99.90;;;;;;4905895;29;20670;-67
2022/03/22 06:47:25;;;;;;;21.00;17.10;;;6.10;99.90;;;;;;4911147;29;20460;-68
2022/03/22 06:50:15;;;;;;;19.57;17.40;;;6.20;99.90;;;;;;4903394;29;20530;-68
2022/03/22 06:53:04;;;;;;;18.13;16.13;;;6.20;99.90;;;;;;4913086;29;20500;-67
2022/03/22 06:55:53;;;;;;;19.43;17.10;;;6.30;99.90;;;;;;4911710;29;21044;-68
2022/03/22 06:58:42;;;;;;;20.20;17.10;;;6.20;99.90;;;;;;4904063;29;21483;-68
2022/03/22 07:01:31;;;;;;;20.20;16.67;;;6.20;99.90;;;;;;4901896;29;20638;-68
2022/03/22 07:04:22;;;;;;;19.33;17.10;;;6.20;99.90;;;;;;4906828;29;20675;-67
2022/03/22 07:07:10;;;;;;;19.83;17.50;;;6.20;99.90;;;;;;4910884;29;20596;-67
2022/03/22 07:09:58;;;;;;;20.33;16.67;;;6.30;99.90;;;;;;4928177;29;20542;-68
2022/03/22 07:12:51;;;;;;;19.80;16.73;;;6.30;99.90;;;;;;4924948;29;20482;-67
2022/03/22 07:15:41;;;;;;;19.93;17.60;;;6.30;99.90;;;;;;4921994;28;20536;-67
2022/03/22 07:18:29;;;;;;;19.37;17.37;;;6.40;99.90;;;;;;4917922;29;20464;-67
2022/03/22 07:21:18;;;;;;;22.90;17.77;;;6.40;99.90;;;;;;4904669;29;20480;-68
2022/03/22 07:24:08;;;;;;;21.87;18.27;;;6.50;99.90;;;;;;4912261;29;20579;-68
2022/03/22 07:26:56;;;;;;;21.93;17.80;;;6.60;99.90;;;;;;4909204;29;20611;-68
2022/03/22 07:29:44;;;;;;;25.83;18.07;;;6.60;99.90;;;;;;4913796;29;20563;-68
2022/03/22 07:32:34;;;;;;;23.43;18.50;;;6.70;99.90;;;;;;4916978;29;20482;-68
2022/03/22 07:35:22;;;;;;;21.53;17.80;;;6.70;99.90;;;;;;4910972;29;20580;-69
2022/03/22 07:38:11;;;;;;;20.83;17.67;;;6.80;99.90;;;;;;4910191;29;20465;-68
2022/03/22 07:40:59;;;;;;;20.83;18.20;;;6.90;99.90;;;;;;4915232;29;20581;-69
2022/03/22 07:43:49;;;;;;;22.23;18.67;;;6.90;99.90;;;;;;4907683;29;20469;-68
2022/03/22 07:46:38;;;;;;;20.60;18.40;;;6.90;99.90;;;;;;4908015;29;20467;-68
2022/03/22 07:55:52;;;;;;;21.40;18.30;;;7.10;99.90;;;;;;4906770;28;21230;-67
2022/03/22 07:58:41;;;;;;;20.70;18.60;;;7.10;99.90;;;;;;4916850;29;20918;-68
2022/03/22 08:01:29;;;;;;;21.70;19.30;;;7.20;99.90;;;;;;4911724;29;20651;-69
2022/03/22 08:04:17;;;;;;;21.10;17.40;;;7.30;99.90;;;;;;4908964;28;20506;-68
2022/03/22 08:07:07;;;;;;;20.67;18.47;;;7.40;99.90;;;;;;4915709;29;20539;-68
2022/03/22 08:09:55;;;;;;;22.20;19.83;;;7.40;99.90;;;;;;4927487;29;20520;-69
2022/03/22 08:12:46;;;;;;;20.80;18.60;;;7.50;99.90;;;;;;4916867;29;20507;-69
2022/03/22 08:15:34;;;;;;;21.53;18.00;;;7.50;99.90;;;;;;4902644;28;20609;-69
2022/03/22 08:18:22;;;;;;;20.93;17.80;;;7.60;99.90;;;;;;4906459;29;20466;-69
2022/03/22 08:21:11;;;;;;;21.17;18.80;;;7.70;99.90;;;;;;4906503;29;20480;-69
2022/03/22 08:24:01;;;;;;;21.17;19.07;;;7.80;99.90;;;;;;4901304;28;20484;-69
2022/03/22 08:26:49;;;;;;;21.63;18.83;;;7.90;99.90;;;;;;4904161;29;22169;-68
2022/03/22 08:29:37;;;;;;;23.83;18.73;;;8.00;99.90;;;;;;4901948;29;20491;-68
2022/03/22 08:32:26;;;;;;;23.10;19.00;;;8.00;99.90;;;;;;4905200;29;20504;-68
2022/03/22 08:35:15;;;;;;;21.33;19.23;;;8.20;99.90;;;;;;4904634;29;20795;-68
2022/03/22 08:38:05;;;;;;;22.63;19.33;;;8.30;99.90;;;;;;4907831;29;20619;-68
2022/03/22 08:40:56;;;;;;;21.03;18.80;;;8.40;99.90;;;;;;4910854;29;20483;-68
2022/03/22 08:43:44;;;;;;;21.57;19.23;;;8.60;99.90;;;;;;4914246;29;20460;-68
2022/03/22 08:46:32;;;;;;;21.57;19.33;;;8.70;99.90;;;;;;4912793;29;20463;-69
2022/03/22 08:49:21;;;;;;;20.77;18.67;;;8.80;99.90;;;;;;4913616;29;20482;-69
2022/03/22 08:52:09;;;;;;;20.67;18.50;;;8.90;99.90;;;;;;4911008;29;20456;-68
2022/03/22 08:54:57;;;;;;;22.07;19.77;;;9.10;99.90;;;;;;4908982;28;20476;-68
2022/03/22 08:57:48;;;;;;;22.43;20.03;;;9.20;99.90;;;;;;4902644;29;20486;-68
2022/03/22 09:00:37;;;;;;;23.50;18.83;;;9.30;99.90;;;;;;4908129;29;21043;-69
2022/03/22 09:03:26;;;;;;;22.23;19.50;;;9.40;99.90;;;;;;4912236;29;20539;-68
2022/03/22 09:06:16;;;;;;;21.97;19.80;;;9.50;99.90;;;;;;4911576;29;20483;-69
2022/03/22 09:09:10;;;;;;;24.50;19.63;;;9.60;99.90;;;;;;4906111;29;20497;-69
2022/03/22 09:11:59;;;;;;;23.40;20.00;;;9.80;99.90;;;;;;4905045;29;20542;-69
2022/03/22 09:14:50;;;;;;;25.47;20.40;;;9.90;99.90;;;;;;4904662;29;20490;-69
2022/03/22 09:17:38;;;;;;;20.90;18.50;;;10.00;99.90;;;;;;4913223;28;20502;-70
2022/03/22 09:20:29;;;;;;;21.80;19.30;;;10.10;99.90;;;;;;4907510;29;20503;-69
2022/03/22 09:23:17;;;;;;;21.53;19.23;;;10.30;99.90;;;;;;4908958;29;20546;-68
2022/03/22 09:26:06;;;;;;;22.20;19.40;;;10.40;99.90;;;;;;4911362;29;20484;-68
2022/03/22 09:28:54;;;;;;;20.50;18.10;;;10.50;99.90;;;;;;4903917;28;20487;-68
2022/03/22 09:31:43;;;;;;;20.03;17.87;;;10.60;99.90;;;;;;4913934;29;20467;-68
2022/03/22 09:34:32;;;;;;;19.30;17.13;;;10.70;99.90;;;;;;4905168;28;20491;-68
2022/03/22 09:37:23;;;;;;;21.80;18.47;;;10.80;99.90;;;;;;4906059;29;20538;-70
2022/03/22 09:40:13;;;;;;;19.17;17.13;;;10.90;99.90;;;;;;4910643;29;21078;-68
2022/03/22 09:43:01;;;;;;;21.33;17.80;;;11.10;99.90;;;;;;4904918;29;21117;-69
2022/03/22 09:45:51;;;;;;;18.83;17.03;;;11.20;99.90;;;;;;4906616;29;21076;-71
2022/03/22 09:48:41;;;;;;;18.43;16.70;;;11.30;99.90;;;;;;4910686;29;20452;-69
2022/03/22 09:51:48;;;;;;;20.10;18.03;;;11.40;99.90;;;;;;4912685;29;20599;-69
2022/03/22 09:54:37;;;;;;;21.07;18.30;;;11.50;99.90;;;;;;4908914;28;20483;-69
2022/03/22 09:57:25;;;;;;;20.80;18.60;;;11.70;99.90;;;;;;4909653;29;20548;-69
2022/03/22 10:00:16;;;;;;;28.13;18.57;;;11.80;99.90;;;;;;4912143;29;20901;-69
2022/03/22 10:03:05;;;;;;;19.53;17.53;;;11.90;99.90;;;;;;4908048;29;20492;-68
2022/03/22 10:06:02;;;;;;;21.30;17.90;;;12.00;99.90;;;;;;4907924;29;21173;-69
2022/03/22 10:08:51;;;;;;;20.27;18.27;;;12.10;99.90;;;;;;4910515;29;22577;-69
2022/03/22 10:11:41;;;;;;;19.33;17.53;;;12.30;99.90;;;;;;4923573;29;20449;-71
2022/03/22 10:14:34;;;;;;;19.33;17.43;;;12.40;99.90;;;;;;4926212;28;20490;-69
2022/03/22 10:17:23;;;;;;;20.67;18.57;;;12.50;99.90;;;;;;4916867;29;20560;-69
2022/03/22 10:20:23;;;;;;;23.03;18.13;;;12.60;99.90;;;;;;4910192;29;20519;-69
2022/03/22 10:23:13;;;;;;;19.13;17.30;;;12.80;99.90;;;;;;4915783;29;20504;-69
2022/03/22 10:26:06;;;;;;;20.90;18.70;;;12.90;99.90;;;;;;4908350;29;20583;-70
2022/03/22 10:28:56;;;;;;;20.47;18.40;;;13.00;99.90;;;;;;4907873;29;20449;-69
2022/03/22 10:31:45;;;;;;;23.80;19.40;;;13.10;99.90;;;;;;4908038;29;20683;-69
2022/03/22 10:34:33;;;;;;;20.03;17.93;;;13.20;99.90;;;;;;4907686;28;20485;-69
2022/03/22 10:37:26;;;;;;;20.90;18.70;;;13.30;99.90;;;;;;4915904;29;20468;-69
2022/03/22 10:40:24;;;;;;;22.00;18.83;;;13.50;99.90;;;;;;4911052;29;21133;-70
2022/03/22 10:43:13;;;;;;;19.33;17.33;;;13.60;99.90;;;;;;4906262;29;20885;-69
2022/03/22 10:46:02;;;;;;;21.30;18.40;;;13.80;99.90;;;;;;4908315;29;20516;-69
2022/03/22 10:48:51;;;;;;;20.37;18.27;;;14.00;99.90;;;;;;4909805;29;20835;-69
2022/03/22 10:51:43;;;;;;;20.47;18.57;;;14.10;99.90;;;;;;4907133;29;20543;-70
2022/03/22 10:54:32;;;;;;;19.87;17.87;;;14.20;99.70;;;;;;4909644;29;20642;-70
2022/03/22 10:57:29;;;;;;;19.40;17.40;;;14.20;99.30;;;;;;4919736;29;21260;-69
2022/03/22 11:00:18;;;;;;;18.40;16.60;;;14.30;99.90;;;;;;4936285;29;20472;-69
2022/03/22 11:03:07;;;;;;;20.40;18.20;;;14.50;99.90;;;;;;4918862;29;20476;-69
2022/03/22 11:06:01;;;;;;;19.50;17.40;;;14.80;99.00;;;;;;4898765;29;20487;-69
2022/03/22 11:08:50;;;;;;;19.40;17.57;;;14.90;98.10;;;;;;4909363;29;20455;-69
2022/03/22 11:11:38;;;;;;;21.23;19.00;;;15.10;97.40;;;;;;4908440;29;20498;-69
2022/03/22 11:14:28;;;;;;;19.67;17.70;;;15.20;96.20;;;;;;4907201;29;20515;-68
2022/03/22 11:17:17;;;;;;;21.87;19.70;;;15.40;97.50;;;;;;4903584;29;20499;-68
2022/03/22 11:20:10;;;;;;;20.80;18.63;;;15.50;95.60;;;;;;4911487;29;20991;-69
2022/03/22 11:23:00;;;;;;;19.60;17.70;;;15.70;95.30;;;;;;4908407;29;20498;-69
2022/03/22 11:25:49;;;;;;;20.53;18.33;;;15.90;95.70;;;;;;4907213;28;20487;-69
2022/03/22 11:28:39;;;;;;;22.00;19.80;;;16.00;97.00;;;;;;4907623;29;20499;-68
2022/03/22 11:31:30;;;;;;;21.13;18.80;;;16.20;96.30;;;;;;4921158;29;20457;-69
2022/03/22 11:34:20;;;;;;;19.70;17.67;;;16.30;95.00;;;;;;4914165;29;20483;-68
2022/03/22 11:37:09;;;;;;;19.67;17.57;;;16.50;96.60;;;;;;4909596;29;20460;-67
2022/03/22 11:43:10;;;;;;;20.07;18.07;;;16.80;96.40;;;;;;4909974;29;20856;-67
2022/03/22 11:45:58;;;;;;;20.67;18.47;;;17.00;93.50;;;;;;4904609;29;20587;-67
2022/03/22 11:48:52;;;;;;;19.40;17.60;;;17.10;93.70;;;;;;4911056;29;20972;-67
2022/03/22 11:51:54;;;;;;;19.97;18.07;;;17.10;93.10;;;;;;4907325;29;20444;-67
2022/03/22 11:54:58;;;;;;;19.23;17.50;;;17.20;93.80;;;;;;4898550;29;20566;-68
2022/03/22 11:57:48;;;;;;;19.90;18.00;;;17.40;94.90;;;;;;4908048;29;20490;-67
2022/03/22 12:00:44;;;;;;;18.97;17.03;;;17.50;92.00;;;;;;4903970;29;20483;-68
2022/03/22 12:03:35;;;;;;;19.73;17.63;;;17.70;92.60;;;;;;4914299;29;20480;-68
2022/03/22 12:06:33;;;;;;;18.93;17.07;;;17.80;92.30;;;;;;4914492;29;20491;-67
2022/03/22 12:09:25;;;;;;;20.77;18.73;;;18.00;91.10;;;;;;4913132;29;20473;-68
2022/03/22 12:12:15;;;;;;;20.80;18.60;;;18.20;92.20;;;;;;4915969;29;21872;-67
2022/03/22 12:15:06;;;;;;;20.00;18.03;;;18.30;88.60;;;;;;4912183;29;20575;-67
2022/03/22 12:17:56;;;;;;;18.83;17.13;;;18.50;90.50;;;;;;4913300;29;20597;-67
2022/03/22 12:20:44;;;;;;;18.73;16.70;;;18.60;84.40;;;;;;4916000;29;21023;-68
2022/03/22 12:23:34;;;;;;;17.50;15.80;;;18.70;86.20;;;;;;4915762;29;20483;-68
2022/03/22 12:26:26;;;;;;;18.73;16.90;;;18.90;82.40;;;;;;4916000;29;20821;-68
2022/03/22 12:29:14;;;;;;;17.53;15.97;;;19.00;83.90;;;;;;4915123;29;20575;-67
2022/03/22 12:32:07;;;;;;;17.33;15.63;;;19.10;83.70;;;;;;4909954;29;20996;-67
2022/03/22 12:34:57;;;;;;;16.83;15.23;;;19.30;83.60;;;;;;4912627;29;20480;-68
2022/03/22 12:37:48;;;;;;;17.90;16.20;;;19.50;82.40;;;;;;4915038;29;20987;-68
2022/03/22 12:40:38;;;;;;;17.00;15.40;;;19.70;76.60;;;;;;4916095;29;20469;-68
2022/03/22 12:43:26;;;;;;;17.33;15.67;;;19.90;76.80;;;;;;4911437;29;20483;-70
2022/03/22 12:46:18;;;;;;;16.80;15.20;;;20.00;81.80;;;;;;4906239;29;20477;-67
2022/03/22 12:49:07;;;;;;;16.93;15.33;;;20.30;83.40;;;;;;4905776;29;20494;-69
2022/03/22 12:51:56;;;;;;;15.70;14.20;;;20.60;73.20;;;;;;4907217;29;20471;-68
2022/03/22 12:54:47;;;;;;;17.10;15.37;;;21.10;77.40;;;;;;4913816;29;21013;-67
2022/03/22 12:57:38;;;;;;;15.17;13.70;;;21.90;78.00;;;;;;4911171;29;20694;-68
2022/03/22 13:00:31;;;;;;;15.77;13.77;;;22.70;76.90;;;;;;4902987;29;20489;-67
2022/03/22 13:03:20;;;;;;;15.93;14.37;;;23.60;72.10;;;;;;4898299;29;20612;-67
2022/03/22 13:06:10;;;;;;;16.97;15.40;;;24.50;69.60;;;;;;4900978;29;20480;-68
2022/03/22 13:12:10;;;;;;;16.20;14.90;;;27.20;65.90;;;;;;4909694;29;20475;-69
2022/03/22 13:15:10;;;;;;;16.93;15.43;;;28.20;61.50;;;;;;4914471;29;21106;-68
2022/03/22 13:18:01;;;;;;;15.87;14.37;;;28.70;58.50;;;;;;4916112;29;20936;-68
2022/03/22 13:20:53;;;;;;;16.23;14.93;;;29.10;55.10;;;;;;4908479;29;20488;-68
2022/03/22 13:23:44;;;;;;;15.40;14.30;;;29.40;55.40;;;;;;4911338;28;20515;-69
2022/03/22 13:26:33;;;;;;;16.20;14.90;;;29.70;53.90;;;;;;4906224;29;20539;-69
2022/03/22 13:29:22;;;;;;;15.00;13.80;;;29.90;51.70;;;;;;4914304;29;20684;-69
2022/03/22 13:32:14;;;;;;;15.37;13.87;;;30.00;49.70;;;;;;4911799;29;20520;-69
2022/03/22 13:35:04;;;;;;;14.57;13.33;;;30.00;50.80;;;;;;4913231;29;20490;-69
2022/03/22 13:37:53;;;;;;;13.80;12.60;;;29.70;48.40;;;;;;4913522;29;20463;-69
2022/03/22 13:40:42;;;;;;;16.33;14.73;;;29.40;50.00;;;;;;4915002;29;20481;-68
2022/03/22 13:43:31;;;;;;;16.23;14.93;;;28.70;47.00;;;;;;4914346;29;20973;-71
2022/03/22 13:46:19;;;;;;;14.97;13.77;;;28.30;49.00;;;;;;4911415;29;20481;-69
2022/03/22 13:49:09;;;;;;;15.97;14.57;;;27.80;50.30;;;;;;4913683;29;20538;-68
2022/03/22 13:51:57;;;;;;;16.17;14.87;;;27.30;49.80;;;;;;4915938;29;20848;-68
2022/03/22 13:54:46;;;;;;;15.50;14.20;;;27.20;49.50;;;;;;4910658;29;20603;-68
2022/03/22 13:57:38;;;;;;;16.23;14.80;;;27.00;49.50;;;;;;4915227;29;20472;-68
2022/03/22 14:00:26;;;;;;;17.53;16.00;;;26.60;51.30;;;;;;4916560;29;20571;-68
2022/03/22 14:03:16;;;;;;;17.10;15.67;;;26.40;49.10;;;;;;4915728;29;20664;-68
2022/03/22 14:06:06;;;;;;;16.37;15.03;;;26.00;49.20;;;;;;4909611;29;20484;-68
2022/03/22 14:08:54;;;;;;;14.90;13.53;;;25.80;50.60;;;;;;4907651;29;20744;-67
2022/03/22 14:11:43;;;;;;;15.10;13.50;;;25.50;50.90;;;;;;4916493;29;20461;-67
2022/03/22 14:14:31;;;;;;;13.70;12.30;;;25.40;48.30;;;;;;4910958;29;20569;-67
2022/03/22 14:17:19;;;;;;;14.67;13.17;;;24.90;48.60;;;;;;4916040;29;20465;-67
2022/03/22 14:20:11;;;;;;;13.13;11.93;;;24.40;50.30;;;;;;4908828;29;20539;-67
2022/03/22 14:23:01;;;;;;;14.33;13.13;;;23.90;51.30;;;;;;4909734;29;20464;-67
2022/03/22 14:25:51;;;;;;;14.00;12.70;;;23.50;48.90;;;;;;4915650;28;20979;-66
2022/03/22 14:28:39;;;;;;;13.03;11.83;;;23.20;50.40;;;;;;4913812;29;20452;-67
2022/03/22 14:31:29;;;;;;;12.97;11.87;;;22.90;50.80;;;;;;4915550;29;20588;-66
2022/03/22 14:37:22;;;;;;;12.83;11.63;;;22.40;50.20;;;;;;4907686;29;20511;-66
2022/03/22 14:40:13;;;;;;;13.30;12.20;;;22.20;50.00;;;;;;4907737;28;21190;-66
2022/03/22 14:43:04;;;;;;;14.40;12.90;;;21.90;51.60;;;;;;4909784;29;20472;-67
2022/03/22 14:45:53;;;;;;;15.50;14.10;;;21.80;51.60;;;;;;4906648;28;20489;-67
2022/03/22 14:48:41;;;;;;;15.47;14.07;;;21.60;51.80;;;;;;4908522;29;20491;-67
2022/03/22 14:54:33;;;;;;;13.40;12.23;;;21.50;52.50;;;;;;4884739;28;20471;-66
2022/03/22 15:00:33;;;;;;;12.70;11.20;;;21.60;50.40;;;;;;4917948;29;21418;-67
2022/03/22 15:03:26;;;;;;;11.90;10.70;;;21.70;50.30;;;;;;4912967;29;20497;-66
2022/03/22 15:06:16;;;;;;;12.13;10.93;;;21.70;49.90;;;;;;4908000;29;20501;-67
2022/03/22 15:09:05;;;;;;;12.10;10.87;;;21.80;50.00;;;;;;4906523;29;23053;-67
2022/03/22 15:11:55;;;;;;;11.67;10.57;;;21.70;48.20;;;;;;4913425;29;20453;-67
2022/03/22 15:14:44;;;;;;;11.30;10.20;;;21.70;50.70;;;;;;4900040;29;20648;-66
2022/03/22 15:17:33;;;;;;;12.53;11.03;;;21.60;50.40;;;;;;4912902;29;20582;-67
2022/03/22 15:20:21;;;;;;;13.57;11.50;;;21.50;49.00;;;;;;4910234;29;20522;-66
2022/03/22 15:23:11;;;;;;;14.27;10.90;;;21.20;49.60;;;;;;4912587;29;20460;-66
2022/03/22 15:26:00;;;;;;;12.83;11.77;;;21.10;51.60;;;;;;4911860;29;20523;-66